Dutch John, Utah
Current Conditions -  °F | °C
As of 7:53 PM on Monday 22 Dec 2014 (Local Time) from KVEL Reporting Station
Broken Clouds Broken Clouds  
Wind Chill: 24°   Ceiling: 12000
Heat Index: 35°   Visibility: 10mi
Dew Point: 16°   Wind: 18mph
Humidity: 46%   Direction: 350°N
Pressure: 29.97"   Gusts: 30mph
Location:  40.93°N, 109.39°W
Report Text: KVEL 230253Z AUTO 35016G26KT 10SM BKN120 02/M09 A2997 RMK AO2 PK WND 34040/0210 SNB13E22 SLP155 P0000 60000 T00171089 52023
Loading
Personal Weather Stations






























Interactive Weather Map New forecast layout! Learn more

10-Day Weather Forecast

Advertisements
Track Severe Weather on mobile